Aviation Digital Data Service (ADDS)

Output produced by METARs form (2128 UTC 21 October 2014)
found at http://aviationweather.gov/adds/metars/
 
KPSM 212034Z 2121/2218 08007KT 5SM -RA BR OVC008 
     TEMPO 2121/2124 2SM RA BR OVC004 
     FM220000 03007G15KT 3SM RA BR OVC004 
     FM220900 01015G25KT 2SM -RA BR OVC003